createdAt,value
2022-12-29T00:01:10.289Z,1.38
2022-12-29T00:02:34.149Z,1.48
2022-12-29T00:03:56.776Z,1.90
2022-12-29T00:05:20.459Z,1.40
2022-12-29T00:06:43.492Z,1.13
2022-12-29T00:08:07.221Z,1.15
2022-12-29T00:09:29.941Z,1.10
2022-12-29T00:10:53.400Z,1.23
2022-12-29T00:12:16.805Z,1.20
2022-12-29T00:13:57.957Z,1.05
2022-12-29T00:15:38.915Z,1.05
2022-12-29T00:17:04.514Z,1.00
2022-12-29T00:18:28.935Z,1.20
2022-12-29T00:20:06.283Z,1.08
2022-12-29T00:21:50.937Z,1.35
2022-12-29T00:23:31.745Z,0.88
2022-12-29T00:25:13.317Z,1.38
2022-12-29T00:26:55.127Z,1.27
2022-12-29T00:28:35.907Z,1.10
2022-12-29T00:30:17.575Z,1.40
2022-12-29T00:31:59.173Z,1.08
2022-12-29T00:33:46.081Z,1.10
2022-12-29T00:35:10.986Z,1.20
2022-12-29T00:36:35.581Z,1.23
2022-12-29T00:38:18.922Z,1.15
2022-12-29T00:39:59.961Z,1.13
2022-12-29T00:41:41.114Z,1.30
2022-12-29T00:43:22.358Z,1.17
2022-12-29T00:44:45.900Z,1.33
2022-12-29T00:46:08.916Z,0.98
2022-12-29T00:47:34.314Z,1.00
2022-12-29T00:49:16.859Z,1.17
2022-12-29T00:50:40.647Z,1.05
2022-12-29T00:52:06.190Z,1.13
2022-12-29T00:53:29.801Z,1.45
2022-12-29T00:54:53.676Z,1.00
2022-12-29T00:56:16.111Z,1.13
2022-12-29T00:57:41.515Z,1.20
2022-12-29T00:59:04.384Z,1.27
2022-12-29T01:00:27.997Z,1.20
2022-12-29T01:01:51.729Z,0.95
2022-12-29T01:03:14.336Z,1.33
2022-12-29T01:04:39.467Z,1.20
2022-12-29T01:06:02.818Z,0.90
2022-12-29T01:07:26.252Z,1.38
2022-12-29T01:09:09.523Z,1.10
2022-12-29T01:10:32.006Z,1.20
2022-12-29T01:11:55.424Z,1.10
2022-12-29T01:13:18.889Z,1.23
2022-12-29T01:14:41.402Z,1.20
2022-12-29T01:16:05.203Z,1.00
2022-12-29T01:17:27.739Z,1.30
2022-12-29T01:18:51.111Z,1.30
2022-12-29T01:20:15.983Z,0.80
2022-12-29T01:21:38.439Z,1.88
2022-12-29T01:23:01.867Z,1.13
2022-12-29T01:24:27.009Z,1.33
2022-12-29T01:25:49.476Z,1.42
2022-12-29T01:27:12.896Z,0.95
2022-12-29T01:28:35.405Z,1.00
2022-12-29T01:29:58.826Z,1.30
2022-12-29T01:31:21.287Z,0.73
2022-12-29T01:32:44.765Z,1.15
2022-12-29T01:34:07.442Z,1.20
2022-12-29T01:35:32.213Z,1.08
2022-12-29T01:36:55.598Z,1.05
2022-12-29T01:38:18.038Z,1.08
2022-12-29T01:39:41.687Z,0.88
2022-12-29T01:41:05.352Z,1.13
2022-12-29T01:42:28.763Z,1.00
2022-12-29T01:43:52.979Z,1.00
2022-12-29T01:45:18.072Z,0.80
2022-12-29T01:46:42.395Z,1.20
2022-12-29T01:48:07.032Z,1.00
2022-12-29T01:49:30.342Z,1.35
2022-12-29T01:50:56.148Z,0.88
2022-12-29T01:52:18.624Z,1.25
2022-12-29T01:53:42.119Z,1.00
2022-12-29T01:55:05.575Z,1.13
2022-12-29T01:56:29.755Z,1.55
2022-12-29T01:57:55.348Z,1.20
2022-12-29T01:59:21.920Z,1.60
2022-12-29T02:00:45.388Z,1.20
2022-12-29T02:02:08.588Z,0.98
2022-12-29T02:03:33.539Z,1.00
2022-12-29T02:05:04.145Z,1.30
2022-12-29T02:06:34.057Z,0.88
2022-12-29T02:07:57.964Z,1.38
2022-12-29T02:09:20.507Z,1.13
2022-12-29T02:10:44.642Z,1.15
2022-12-29T02:12:07.544Z,1.20
2022-12-29T02:13:33.169Z,1.02
2022-12-29T02:14:58.689Z,1.20
2022-12-29T02:16:34.116Z,0.90
2022-12-29T02:18:10.661Z,1.10
2022-12-29T02:20:12.507Z,1.35
2022-12-29T02:21:58.773Z,1.10
2022-12-29T02:23:48.346Z,1.00
2022-12-29T02:25:40.454Z,1.05
2022-12-29T02:27:47.548Z,0.93
2022-12-29T02:29:33.485Z,1.10
2022-12-29T02:31:07.145Z,0.90
2022-12-29T02:32:37.887Z,1.08
2022-12-29T02:34:11.931Z,1.13
2022-12-29T02:35:38.375Z,0.98
2022-12-29T02:37:07.367Z,1.30
2022-12-29T02:38:46.075Z,0.98
2022-12-29T02:40:16.643Z,1.08
2022-12-29T02:41:46.371Z,1.15
2022-12-29T02:43:18.207Z,1.10
2022-12-29T02:44:47.567Z,1.00
2022-12-29T02:46:17.929Z,0.88
2022-12-29T02:47:43.515Z,0.88
2022-12-29T02:49:11.454Z,1.10
2022-12-29T02:50:38.861Z,1.10
2022-12-29T02:52:04.886Z,0.70
2022-12-29T02:53:45.997Z,0.68
2022-12-29T02:55:09.755Z,0.90
2022-12-29T02:56:32.304Z,0.82
2022-12-29T02:58:17.859Z,1.10
2022-12-29T02:59:41.182Z,0.98
2022-12-29T03:01:24.813Z,1.00
2022-12-29T03:03:07.616Z,1.17
2022-12-29T03:04:38.093Z,1.15
2022-12-29T03:06:14.391Z,1.00
2022-12-29T03:07:43.830Z,1.10
2022-12-29T03:09:18.781Z,0.68
2022-12-29T03:10:49.250Z,1.30
2022-12-29T03:12:25.566Z,0.90
2022-12-29T03:14:10.507Z,0.90
2022-12-29T03:15:56.047Z,0.85
2022-12-29T03:17:27.047Z,1.10
2022-12-29T03:18:58.673Z,1.17
2022-12-29T03:20:25.253Z,1.00
2022-12-29T03:22:09.673Z,0.98
2022-12-29T03:23:35.029Z,0.80
2022-12-29T03:25:00.559Z,1.08
2022-12-29T03:26:24.181Z,1.27
2022-12-29T03:27:49.509Z,1.15
2022-12-29T03:29:13.382Z,1.05
2022-12-29T03:30:39.067Z,0.93
2022-12-29T03:32:02.951Z,0.80
2022-12-29T03:33:30.165Z,0.80
2022-12-29T03:34:52.836Z,1.00
2022-12-29T03:36:21.158Z,0.82
2022-12-29T03:37:50.378Z,1.25
2022-12-29T03:39:15.055Z,1.27
2022-12-29T03:40:39.963Z,1.10
2022-12-29T03:42:05.226Z,0.77
2022-12-29T03:43:28.693Z,1.05
2022-12-29T03:44:56.345Z,1.02
2022-12-29T03:46:19.829Z,1.40
2022-12-29T03:47:43.386Z,0.98
2022-12-29T03:49:07.248Z,1.10
2022-12-29T03:50:30.681Z,1.10
2022-12-29T03:51:54.099Z,0.93
2022-12-29T03:53:17.517Z,1.10
2022-12-29T03:54:42.109Z,1.05
2022-12-29T03:56:05.769Z,0.90
2022-12-29T03:57:28.195Z,0.95
2022-12-29T03:58:51.675Z,1.00
2022-12-29T04:00:16.630Z,0.88
2022-12-29T04:01:40.904Z,1.02
2022-12-29T04:03:04.672Z,0.95
2022-12-29T04:04:29.617Z,1.00
2022-12-29T04:05:56.107Z,0.63
2022-12-29T04:07:18.549Z,0.93
2022-12-29T04:08:41.959Z,0.80
2022-12-29T04:10:04.850Z,1.00
2022-12-29T04:11:33.339Z,1.10
2022-12-29T04:12:57.019Z,1.08
2022-12-29T04:14:20.412Z,1.42
2022-12-29T04:15:43.667Z,1.20
2022-12-29T04:17:07.919Z,1.10
2022-12-29T04:18:31.338Z,0.77
2022-12-29T04:20:16.541Z,1.08
2022-12-29T04:21:39.223Z,1.00
2022-12-29T04:23:03.043Z,1.10
2022-12-29T04:24:26.450Z,0.80
2022-12-29T04:25:48.855Z,1.10
2022-12-29T04:27:12.551Z,1.10
2022-12-29T04:28:35.269Z,0.90
2022-12-29T04:29:58.924Z,1.25
2022-12-29T04:31:22.418Z,1.02
2022-12-29T04:32:44.848Z,1.10
2022-12-29T04:34:09.108Z,0.98
2022-12-29T04:35:32.893Z,1.05
2022-12-29T04:36:56.305Z,1.27
2022-12-29T04:38:19.866Z,0.80
2022-12-29T04:39:42.382Z,0.88
2022-12-29T04:41:05.919Z,1.20
2022-12-29T04:42:28.354Z,0.90
2022-12-29T04:43:51.819Z,1.05
2022-12-29T04:45:16.760Z,1.25
2022-12-29T04:46:40.667Z,1.02
2022-12-29T04:48:03.553Z,1.15
2022-12-29T04:49:26.906Z,0.80
2022-12-29T04:50:51.935Z,1.08
2022-12-29T04:52:14.365Z,1.35
2022-12-29T04:53:37.992Z,1.02
2022-12-29T04:55:00.391Z,1.25
2022-12-29T04:56:23.876Z,0.98
2022-12-29T04:57:46.333Z,1.02
2022-12-29T04:59:09.744Z,1.30
2022-12-29T05:00:32.276Z,1.05
2022-12-29T05:01:55.849Z,0.90
2022-12-29T05:03:18.671Z,1.08
2022-12-29T05:04:42.197Z,1.67
2022-12-29T05:06:06.621Z,1.42
2022-12-29T05:07:30.942Z,1.13
2022-12-29T05:08:54.378Z,1.20
2022-12-29T05:10:17.965Z,0.95
2022-12-29T05:11:41.806Z,1.13
2022-12-29T05:13:05.342Z,1.15
2022-12-29T05:14:27.873Z,1.00
2022-12-29T05:15:53.028Z,1.10
2022-12-29T05:17:15.541Z,1.10
2022-12-29T05:18:38.946Z,1.00
2022-12-29T05:20:01.443Z,1.00
2022-12-29T05:21:26.277Z,1.20
2022-12-29T05:22:49.718Z,1.35
2022-12-29T05:24:13.240Z,1.02
2022-12-29T05:25:36.617Z,1.10
2022-12-29T05:27:00.002Z,1.10
2022-12-29T05:28:23.481Z,1.00
2022-12-29T05:29:46.013Z,1.00
2022-12-29T05:31:09.870Z,1.10
2022-12-29T05:32:32.362Z,1.08
2022-12-29T05:33:56.626Z,0.98
2022-12-29T05:35:19.091Z,0.93
2022-12-29T05:36:43.952Z,1.40
2022-12-29T05:38:07.383Z,1.15
2022-12-29T05:39:30.187Z,0.85
2022-12-29T05:40:53.696Z,0.80
2022-12-29T05:42:17.116Z,1.30
2022-12-29T05:43:39.709Z,1.10
2022-12-29T05:45:03.123Z,1.30
2022-12-29T05:46:26.619Z,1.05
2022-12-29T05:47:50.060Z,1.15
2022-12-29T05:49:12.488Z,0.93
2022-12-29T05:50:35.977Z,1.60
2022-12-29T05:52:00.824Z,1.10
2022-12-29T05:53:24.276Z,0.93
2022-12-29T05:54:47.710Z,0.73
2022-12-29T05:56:11.271Z,0.90
2022-12-29T05:57:34.746Z,0.90
2022-12-29T05:58:57.223Z,1.10
2022-12-29T06:00:20.892Z,1.30
2022-12-29T06:01:43.503Z,1.02
2022-12-29T06:03:07.354Z,1.00
2022-12-29T06:04:29.975Z,1.30
2022-12-29T06:05:53.457Z,0.85
2022-12-29T06:07:18.190Z,0.70
2022-12-29T06:08:42.934Z,0.80
2022-12-29T06:10:06.371Z,1.23
2022-12-29T06:11:29.842Z,0.90
2022-12-29T06:12:52.389Z,1.02
2022-12-29T06:14:15.781Z,0.82
2022-12-29T06:15:39.232Z,1.17
2022-12-29T06:17:01.766Z,1.10
2022-12-29T06:18:25.169Z,1.30
2022-12-29T06:19:48.725Z,1.00
2022-12-29T06:21:12.282Z,1.23
2022-12-29T06:22:37.131Z,0.70
2022-12-29T06:24:00.648Z,1.17
2022-12-29T06:25:24.034Z,0.47
2022-12-29T06:26:46.520Z,1.00
2022-12-29T06:28:11.391Z,0.90
2022-12-29T06:29:37.229Z,0.90
2022-12-29T06:30:59.690Z,0.88
2022-12-29T06:32:23.169Z,0.93
2022-12-29T06:33:49.883Z,0.95
2022-12-29T06:35:12.733Z,1.10
2022-12-29T06:36:36.328Z,1.08
2022-12-29T06:38:01.172Z,0.98
2022-12-29T06:39:24.560Z,0.90
2022-12-29T06:40:46.993Z,0.82
2022-12-29T06:42:11.927Z,0.90
2022-12-29T06:43:35.181Z,1.08
2022-12-29T06:44:59.907Z,0.75
2022-12-29T06:46:23.488Z,0.80
2022-12-29T06:47:46.948Z,0.93
2022-12-29T06:49:10.509Z,0.90
2022-12-29T06:50:32.921Z,0.90
2022-12-29T06:51:56.370Z,0.95
2022-12-29T06:53:20.216Z,0.80
2022-12-29T06:54:43.711Z,0.90
2022-12-29T06:56:07.806Z,1.05
2022-12-29T06:57:30.207Z,0.90
2022-12-29T06:58:53.996Z,0.82
2022-12-29T07:00:22.647Z,0.70
2022-12-29T07:01:46.718Z,0.82
2022-12-29T07:03:10.339Z,0.85
2022-12-29T07:04:33.847Z,1.00
2022-12-29T07:05:58.978Z,1.00
2022-12-29T07:07:22.609Z,0.70
2022-12-29T07:08:47.456Z,0.90
2022-12-29T07:10:12.582Z,1.00
2022-12-29T07:11:36.491Z,0.80
2022-12-29T07:12:58.904Z,0.88
2022-12-29T07:14:22.348Z,1.25
2022-12-29T07:15:44.848Z,1.08
2022-12-29T07:17:08.347Z,0.68
2022-12-29T07:18:30.891Z,0.98
2022-12-29T07:19:54.424Z,0.82
2022-12-29T07:21:17.930Z,0.65
2022-12-29T07:22:41.347Z,0.80
2022-12-29T07:24:07.066Z,0.90
2022-12-29T07:25:30.730Z,1.08
2022-12-29T07:26:54.164Z,0.80
2022-12-29T07:28:16.579Z,0.93
2022-12-29T07:29:40.890Z,0.93
2022-12-29T07:31:04.772Z,0.70
2022-12-29T07:32:28.214Z,0.80
2022-12-29T07:33:52.092Z,0.70
2022-12-29T07:35:14.728Z,0.85
2022-12-29T07:36:38.104Z,1.30
2022-12-29T07:38:02.340Z,0.90
2022-12-29T07:39:26.202Z,0.90
2022-12-29T07:40:49.651Z,0.82
2022-12-29T07:42:13.136Z,1.00
2022-12-29T07:43:36.654Z,0.95
2022-12-29T07:45:00.135Z,1.10
2022-12-29T07:46:55.051Z,0.88
2022-12-29T07:48:08.474Z,0.65
2022-12-29T07:49:30.969Z,1.08
2022-12-29T07:50:55.203Z,0.90
2022-12-29T07:52:18.739Z,0.88
2022-12-29T07:53:42.379Z,0.63
2022-12-29T07:55:08.412Z,0.80
2022-12-29T07:56:31.935Z,0.77
2022-12-29T07:57:56.182Z,0.80
2022-12-29T07:59:19.833Z,0.82
2022-12-29T08:00:43.352Z,0.70
2022-12-29T08:02:05.820Z,0.55
2022-12-29T08:03:29.466Z,0.60
2022-12-29T08:04:52.875Z,1.00
2022-12-29T08:06:16.337Z,0.90
2022-12-29T08:07:39.893Z,0.90
2022-12-29T08:09:09.823Z,0.93
2022-12-29T08:10:37.259Z,0.80
2022-12-29T08:12:01.836Z,0.43
2022-12-29T08:13:24.500Z,0.90
2022-12-29T08:14:47.955Z,0.70
2022-12-29T08:16:11.425Z,0.80
2022-12-29T08:17:35.033Z,0.68
2022-12-29T08:18:59.892Z,0.90
2022-12-29T08:20:23.668Z,1.15
2022-12-29T08:21:47.609Z,1.00
2022-12-29T08:23:11.448Z,1.02
2022-12-29T08:24:34.836Z,0.88
2022-12-29T08:26:00.989Z,0.60
2022-12-29T08:27:25.022Z,0.90
2022-12-29T08:28:48.453Z,1.08
2022-12-29T08:30:13.318Z,1.00
2022-12-29T08:31:36.788Z,0.73
2022-12-29T08:33:00.323Z,1.13
2022-12-29T08:34:23.950Z,0.82
2022-12-29T08:35:48.198Z,1.08
2022-12-29T08:37:11.726Z,0.80
2022-12-29T08:38:35.804Z,1.10
2022-12-29T08:40:04.773Z,0.70
2022-12-29T08:41:29.771Z,0.80
2022-12-29T08:42:53.224Z,0.90
2022-12-29T08:44:16.699Z,0.90
2022-12-29T08:45:40.172Z,0.93
2022-12-29T08:47:03.703Z,1.00
2022-12-29T08:48:27.472Z,1.08
2022-12-29T08:49:51.159Z,0.60
2022-12-29T08:51:19.138Z,0.90
2022-12-29T08:52:46.524Z,0.65
2022-12-29T08:54:10.231Z,1.17
2022-12-29T08:55:33.700Z,0.90
2022-12-29T08:56:58.553Z,0.80
2022-12-29T08:58:22.052Z,1.00
2022-12-29T08:59:45.567Z,1.05
2022-12-29T09:01:09.832Z,0.95
2022-12-29T09:02:33.698Z,0.73
2022-12-29T09:04:14.961Z,0.90
2022-12-29T09:05:39.382Z,0.70
2022-12-29T09:07:02.831Z,0.90
2022-12-29T09:08:26.591Z,0.88
2022-12-29T09:09:50.154Z,0.80
2022-12-29T09:11:16.537Z,0.95
2022-12-29T09:12:41.489Z,0.75
2022-12-29T09:14:05.520Z,1.00
2022-12-29T09:15:29.080Z,0.85
2022-12-29T09:17:11.599Z,1.08
2022-12-29T09:18:35.574Z,0.93
2022-12-29T09:19:59.096Z,0.68
2022-12-29T09:21:22.633Z,1.00
2022-12-29T09:22:46.887Z,0.90
2022-12-29T09:24:10.470Z,0.85
2022-12-29T09:25:34.723Z,0.70
2022-12-29T09:26:58.135Z,0.85
2022-12-29T09:28:23.395Z,1.00
2022-12-29T09:29:47.642Z,1.05
2022-12-29T09:31:11.664Z,0.90
2022-12-29T09:32:37.939Z,0.77
2022-12-29T09:34:05.540Z,0.90
2022-12-29T09:35:29.015Z,0.88
2022-12-29T09:36:52.472Z,0.70
2022-12-29T09:38:16.821Z,0.70
2022-12-29T09:39:40.333Z,0.70
2022-12-29T09:41:09.180Z,0.80
2022-12-29T09:42:37.446Z,0.90
2022-12-29T09:44:08.584Z,0.93
2022-12-29T09:45:37.596Z,1.15
2022-12-29T09:47:02.549Z,0.90
2022-12-29T09:48:30.230Z,0.57
2022-12-29T09:49:58.397Z,1.00
2022-12-29T09:51:26.002Z,0.70
2022-12-29T09:52:52.638Z,0.70
2022-12-29T09:54:52.851Z,0.93
2022-12-29T09:56:23.223Z,0.65
2022-12-29T09:57:51.512Z,0.90
2022-12-29T09:59:19.656Z,1.40
2022-12-29T10:00:55.475Z,0.80
2022-12-29T10:02:29.508Z,0.80
2022-12-29T10:03:54.714Z,0.90
2022-12-29T10:05:27.071Z,0.80
2022-12-29T10:07:28.033Z,0.90
2022-12-29T10:08:43.892Z,0.85
2022-12-29T10:10:20.942Z,1.00
2022-12-29T10:11:56.892Z,0.80
2022-12-29T10:13:35.718Z,1.10
2022-12-29T10:15:07.455Z,1.40
2022-12-29T10:16:34.905Z,0.85
2022-12-29T10:18:03.869Z,0.80
2022-12-29T10:19:45.269Z,0.90
2022-12-29T10:21:15.081Z,0.95
2022-12-29T10:22:50.562Z,0.90
2022-12-29T10:24:15.466Z,0.85
2022-12-29T10:25:41.177Z,0.98
2022-12-29T10:27:04.750Z,1.25
2022-12-29T10:28:37.611Z,1.33
2022-12-29T10:30:04.294Z,1.20
2022-12-29T10:31:34.535Z,1.45
2022-12-29T10:33:00.453Z,0.88
2022-12-29T10:34:26.540Z,1.60
2022-12-29T10:35:50.507Z,1.42
2022-12-29T10:37:28.794Z,1.52
2022-12-29T10:39:04.604Z,1.27
2022-12-29T10:40:30.763Z,1.60
2022-12-29T10:41:58.046Z,1.95
2022-12-29T10:43:26.813Z,1.75
2022-12-29T10:44:50.276Z,1.05
2022-12-29T10:46:17.531Z,1.15
2022-12-29T10:47:45.783Z,0.77
2022-12-29T10:49:10.569Z,1.10
2022-12-29T10:50:34.152Z,0.98
2022-12-29T10:52:00.665Z,0.90
2022-12-29T10:53:26.155Z,1.17
2022-12-29T10:54:53.715Z,1.10
2022-12-29T10:56:24.091Z,0.88
2022-12-29T10:57:48.351Z,0.95
2022-12-29T10:59:18.420Z,0.82
2022-12-29T11:00:42.145Z,0.80
2022-12-29T11:02:28.307Z,1.05
2022-12-29T11:04:01.643Z,1.60
2022-12-29T11:05:30.892Z,1.10
2022-12-29T11:06:54.574Z,1.10
2022-12-29T11:08:21.153Z,0.80
2022-12-29T11:09:46.460Z,1.02
2022-12-29T11:11:11.824Z,0.73
2022-12-29T11:12:36.453Z,1.02
2022-12-29T11:14:02.038Z,0.95
2022-12-29T11:15:25.464Z,1.30
2022-12-29T11:16:59.450Z,1.13
2022-12-29T11:18:26.845Z,0.82
2022-12-29T11:19:50.231Z,0.85
2022-12-29T11:21:29.661Z,0.93
2022-12-29T11:22:53.163Z,1.20
2022-12-29T11:24:23.013Z,1.17
2022-12-29T11:25:46.429Z,0.90
2022-12-29T11:27:16.167Z,0.77
2022-12-29T11:28:40.052Z,1.67
2022-12-29T11:30:04.496Z,1.40
2022-12-29T11:31:26.966Z,1.20
2022-12-29T11:32:53.639Z,1.48
2022-12-29T11:34:24.511Z,1.55
2022-12-29T11:35:48.011Z,3.13
2022-12-29T11:37:15.220Z,2.47
2022-12-29T11:38:41.551Z,2.80
2022-12-29T11:40:09.170Z,2.50
2022-12-29T11:41:33.740Z,1.58
2022-12-29T11:42:59.139Z,1.23
2022-12-29T11:44:22.857Z,2.67
2022-12-29T11:45:48.781Z,2.00
2022-12-29T11:47:21.697Z,2.00
2022-12-29T11:48:45.702Z,2.60
2022-12-29T11:50:17.864Z,1.08
2022-12-29T11:51:46.416Z,1.30
2022-12-29T11:53:17.490Z,2.30
2022-12-29T11:54:41.155Z,2.45
2022-12-29T11:56:06.275Z,2.30
2022-12-29T11:57:30.478Z,5.20
2022-12-29T11:58:54.341Z,3.05
2022-12-29T12:00:20.265Z,1.92
2022-12-29T12:01:44.724Z,4.22
2022-12-29T12:03:13.474Z,2.72
2022-12-29T12:04:38.445Z,1.30
2022-12-29T12:06:04.574Z,1.40
2022-12-29T12:07:38.513Z,1.85
2022-12-29T12:09:06.107Z,2.08
2022-12-29T12:10:34.745Z,1.88
2022-12-29T12:11:58.601Z,1.65
2022-12-29T12:13:27.662Z,5.10
2022-12-29T12:14:57.514Z,2.28
2022-12-29T12:16:23.501Z,1.77
2022-12-29T12:17:53.750Z,1.25
2022-12-29T12:19:22.631Z,1.55
2022-12-29T12:20:48.589Z,1.05
2022-12-29T12:22:18.356Z,1.02
2022-12-29T12:23:48.687Z,1.17
2022-12-29T12:25:15.190Z,1.65
2022-12-29T12:26:45.447Z,0.70
2022-12-29T12:28:14.105Z,1.30
2022-12-29T12:29:41.981Z,2.78
2022-12-29T12:31:13.494Z,1.55
2022-12-29T12:32:44.010Z,1.27
2022-12-29T12:34:12.593Z,1.58
2022-12-29T12:35:43.371Z,1.75
2022-12-29T12:37:21.000Z,1.20
2022-12-29T12:38:49.847Z,1.30
2022-12-29T12:40:47.688Z,0.55
2022-12-29T12:42:25.239Z,1.02
2022-12-29T12:43:52.077Z,1.20
2022-12-29T12:45:35.511Z,1.65
2022-12-29T12:47:20.878Z,1.70
2022-12-29T12:48:58.988Z,1.90
2022-12-29T12:50:32.478Z,2.00
2022-12-29T12:52:05.555Z,0.77
2022-12-29T12:53:39.964Z,1.40
2022-12-29T12:55:18.077Z,1.50
2022-12-29T12:56:50.019Z,1.70
2022-12-29T12:58:21.777Z,0.40
2022-12-29T12:59:54.794Z,1.63
2022-12-29T13:01:30.370Z,1.00
2022-12-29T13:03:05.851Z,1.38
2022-12-29T13:04:54.701Z,1.40
2022-12-29T13:06:24.566Z,1.30
2022-12-29T13:07:57.057Z,0.90
2022-12-29T13:09:35.451Z,1.40
2022-12-29T13:11:03.644Z,1.85
2022-12-29T13:12:34.345Z,1.83
2022-12-29T13:14:16.753Z,1.17
2022-12-29T13:15:47.512Z,1.17
2022-12-29T13:17:15.376Z,1.02
2022-12-29T13:18:47.149Z,1.33
2022-12-29T13:20:21.780Z,1.17
2022-12-29T13:22:06.271Z,3.85
2022-12-29T13:23:35.046Z,1.20
2022-12-29T13:25:17.877Z,0.80
2022-12-29T13:26:46.183Z,0.90
2022-12-29T13:28:15.333Z,1.23
2022-12-29T13:29:46.502Z,1.40
2022-12-29T13:31:15.159Z,1.10
2022-12-29T13:32:50.432Z,1.20
2022-12-29T13:34:20.131Z,1.30
2022-12-29T13:35:56.603Z,1.30
2022-12-29T13:37:22.659Z,1.75
2022-12-29T13:38:48.993Z,0.98
2022-12-29T13:40:17.525Z,1.10
2022-12-29T13:41:44.141Z,1.38
2022-12-29T13:43:08.062Z,1.30
2022-12-29T13:44:36.722Z,1.05
2022-12-29T13:46:04.006Z,1.20
2022-12-29T13:47:30.927Z,1.27
2022-12-29T13:48:57.394Z,1.23
2022-12-29T13:50:23.083Z,1.15
2022-12-29T13:51:51.137Z,1.55
2022-12-29T13:53:21.477Z,1.30
2022-12-29T13:54:51.192Z,1.25
2022-12-29T13:56:21.608Z,1.25
2022-12-29T13:57:52.350Z,0.88
2022-12-29T13:59:22.297Z,1.55
2022-12-29T14:00:51.312Z,1.50
2022-12-29T14:02:22.016Z,1.50
2022-12-29T14:03:51.315Z,1.35
2022-12-29T14:05:31.357Z,1.55
2022-12-29T14:07:06.413Z,1.70
2022-12-29T14:08:29.852Z,4.60
2022-12-29T14:09:53.913Z,2.50
2022-12-29T14:11:20.032Z,3.33
2022-12-29T14:12:45.065Z,1.60
2022-12-29T14:14:19.122Z,5.07
2022-12-29T14:15:44.433Z,4.78
2022-12-29T14:17:14.909Z,3.72
2022-12-29T14:18:45.642Z,1.98
2022-12-29T14:20:19.465Z,1.23
2022-12-29T14:21:43.133Z,1.90
2022-12-29T14:23:26.637Z,2.05
2022-12-29T14:24:50.289Z,1.17
2022-12-29T14:26:21.060Z,2.72
2022-12-29T14:27:55.202Z,1.20
2022-12-29T14:29:45.419Z,1.20
2022-12-29T14:31:46.472Z,2.38
2022-12-29T14:33:15.614Z,1.30
2022-12-29T14:34:50.300Z,2.40
2022-12-29T14:36:23.989Z,2.35
2022-12-29T14:37:47.463Z,1.67
2022-12-29T14:39:31.308Z,1.42
2022-12-29T14:40:55.425Z,1.25
2022-12-29T14:42:23.679Z,1.40
2022-12-29T14:43:59.469Z,1.45
2022-12-29T14:45:30.731Z,1.35
2022-12-29T14:47:02.563Z,1.52
2022-12-29T14:48:40.024Z,1.17
2022-12-29T14:50:07.448Z,1.17
2022-12-29T14:51:34.000Z,1.20
2022-12-29T14:53:03.516Z,1.50
2022-12-29T14:54:45.712Z,1.55
2022-12-29T14:56:12.205Z,2.28
2022-12-29T14:57:39.127Z,2.08
2022-12-29T14:59:05.068Z,2.00
2022-12-29T15:00:32.423Z,1.33
2022-12-29T15:01:56.860Z,1.55
2022-12-29T15:03:23.156Z,2.22
2022-12-29T15:04:47.575Z,3.40
2022-12-29T15:06:12.406Z,4.90
2022-12-29T15:07:36.649Z,2.80
2022-12-29T15:09:05.745Z,2.00
2022-12-29T15:10:33.747Z,2.20
2022-12-29T15:12:00.024Z,4.05
2022-12-29T15:13:34.105Z,6.53
2022-12-29T15:14:59.450Z,5.40
2022-12-29T15:16:28.651Z,2.35
2022-12-29T15:17:52.228Z,1.73
2022-12-29T15:19:23.056Z,1.73
2022-12-29T15:20:46.588Z,1.65
2022-12-29T15:22:11.893Z,1.83
2022-12-29T15:23:37.083Z,1.70
2022-12-29T15:25:00.746Z,1.38
2022-12-29T15:26:24.804Z,1.60
2022-12-29T15:27:52.206Z,1.08
2022-12-29T15:29:33.090Z,1.20
2022-12-29T15:30:58.096Z,1.48
2022-12-29T15:32:24.216Z,1.42
2022-12-29T15:33:49.208Z,1.10
2022-12-29T15:35:28.072Z,1.10
2022-12-29T15:36:53.269Z,0.93
2022-12-29T15:38:19.189Z,1.33
2022-12-29T15:39:42.813Z,1.60
2022-12-29T15:41:09.210Z,1.35
2022-12-29T15:42:50.565Z,1.55
2022-12-29T15:44:18.834Z,1.38
2022-12-29T15:45:43.687Z,1.27
2022-12-29T15:47:07.868Z,1.50
2022-12-29T15:48:32.390Z,1.60
2022-12-29T15:49:58.997Z,1.88
2022-12-29T15:51:24.873Z,1.73
2022-12-29T15:52:48.825Z,1.50
2022-12-29T15:54:17.660Z,1.80
2022-12-29T15:55:43.493Z,1.65
2022-12-29T15:57:07.248Z,2.03
2022-12-29T15:58:32.192Z,1.63
2022-12-29T15:59:56.317Z,3.53
2022-12-29T16:01:25.521Z,1.75
2022-12-29T16:02:49.300Z,2.75
2022-12-29T16:04:12.811Z,2.03
2022-12-29T16:05:37.588Z,1.67
2022-12-29T16:07:02.827Z,1.83
2022-12-29T16:08:35.107Z,1.70
2022-12-29T16:10:00.099Z,1.95
2022-12-29T16:11:26.201Z,1.70
2022-12-29T16:12:49.567Z,2.13
2022-12-29T16:14:16.634Z,2.00
2022-12-29T16:15:40.032Z,1.38
2022-12-29T16:17:06.119Z,1.50
2022-12-29T16:18:31.533Z,1.88
2022-12-29T16:19:57.422Z,2.00
2022-12-29T16:21:23.945Z,1.60
2022-12-29T16:22:51.527Z,2.80
2022-12-29T16:24:18.119Z,2.60
2022-12-29T16:25:43.822Z,2.13
2022-12-29T16:27:11.260Z,1.63
2022-12-29T16:28:38.275Z,2.30
2022-12-29T16:30:07.361Z,1.73
2022-12-29T16:31:36.318Z,1.65
2022-12-29T16:33:02.648Z,2.38
2022-12-29T16:34:28.198Z,1.75
2022-12-29T16:35:51.549Z,1.70
2022-12-29T16:37:30.793Z,1.60
2022-12-29T16:39:27.410Z,1.50
2022-12-29T16:40:55.129Z,1.60
2022-12-29T16:42:38.474Z,2.05
2022-12-29T16:44:15.806Z,1.70
2022-12-29T16:46:09.965Z,3.25
2022-12-29T16:47:33.444Z,5.60
2022-12-29T16:48:59.154Z,2.47
2022-12-29T16:50:28.613Z,2.30
2022-12-29T16:51:55.151Z,2.15
2022-12-29T16:53:23.559Z,1.73
2022-12-29T16:54:52.752Z,1.80
2022-12-29T16:56:17.767Z,1.58
2022-12-29T16:57:41.224Z,1.77
2022-12-29T16:59:06.785Z,1.40
2022-12-29T17:00:33.290Z,0.90
2022-12-29T17:01:56.213Z,1.33
2022-12-29T17:03:19.819Z,1.65
2022-12-29T17:04:49.120Z,1.48
2022-12-29T17:06:17.266Z,1.40
2022-12-29T17:07:40.709Z,1.17
2022-12-29T17:09:04.303Z,1.40
2022-12-29T17:10:46.797Z,1.25
2022-12-29T17:12:12.061Z,1.60
2022-12-29T17:13:35.451Z,1.30
2022-12-29T17:14:59.932Z,2.08
2022-12-29T17:16:22.417Z,4.85
2022-12-29T17:17:47.907Z,2.45
2022-12-29T17:19:17.075Z,1.33
2022-12-29T17:20:42.151Z,1.33
2022-12-29T17:22:10.560Z,1.52
2022-12-29T17:23:34.713Z,1.45
2022-12-29T17:24:59.139Z,1.35
2022-12-29T17:26:21.641Z,1.33
2022-12-29T17:27:46.609Z,0.95
2022-12-29T17:29:17.155Z,1.02
2022-12-29T17:30:42.898Z,1.73
2022-12-29T17:32:08.139Z,2.38
2022-12-29T17:33:33.953Z,2.95
2022-12-29T17:34:57.345Z,1.50
2022-12-29T17:36:22.229Z,1.95
2022-12-29T17:37:45.988Z,2.70
2022-12-29T17:39:09.109Z,2.42
2022-12-29T17:40:34.158Z,3.38
2022-12-29T17:41:57.069Z,2.55
2022-12-29T17:43:21.128Z,2.17
2022-12-29T17:44:43.992Z,1.88
2022-12-29T17:46:08.901Z,1.50
2022-12-29T17:47:32.631Z,1.98
2022-12-29T17:48:55.365Z,1.75
2022-12-29T17:50:20.195Z,1.40
2022-12-29T17:51:46.361Z,1.30
2022-12-29T17:53:14.159Z,1.60
2022-12-29T17:54:37.608Z,1.35
2022-12-29T17:56:01.080Z,1.48
2022-12-29T17:57:24.520Z,1.58
2022-12-29T17:58:48.630Z,1.63
2022-12-29T18:00:18.168Z,1.77
2022-12-29T18:01:45.443Z,1.52
2022-12-29T18:03:11.351Z,1.42
2022-12-29T18:04:34.962Z,1.63
2022-12-29T18:05:59.498Z,2.10
2022-12-29T18:07:28.744Z,1.40
2022-12-29T18:08:54.474Z,1.30
2022-12-29T18:10:18.033Z,1.50
2022-12-29T18:11:43.368Z,1.42
2022-12-29T18:13:07.124Z,1.48
2022-12-29T18:14:30.600Z,1.88
2022-12-29T18:15:54.496Z,1.63
2022-12-29T18:17:17.997Z,1.55
2022-12-29T18:18:41.502Z,1.60
2022-12-29T18:20:05.303Z,1.55
2022-12-29T18:21:28.927Z,1.83
2022-12-29T18:22:53.786Z,1.50
2022-12-29T18:24:17.236Z,1.67
2022-12-29T18:25:43.451Z,2.00
2022-12-29T18:27:13.660Z,1.48
2022-12-29T18:28:37.525Z,1.90
2022-12-29T18:30:02.662Z,1.52
2022-12-29T18:31:27.565Z,1.80
2022-12-29T18:32:51.172Z,1.52
2022-12-29T18:34:16.296Z,1.63
2022-12-29T18:35:41.367Z,1.67
2022-12-29T18:37:04.855Z,1.35
2022-12-29T18:38:30.373Z,1.60
2022-12-29T18:39:53.891Z,1.60
2022-12-29T18:41:19.333Z,1.25
2022-12-29T18:42:42.783Z,1.75
2022-12-29T18:44:06.384Z,2.05
2022-12-29T18:45:32.031Z,1.88
2022-12-29T18:46:55.968Z,1.42
2022-12-29T18:48:20.409Z,1.80
2022-12-29T18:49:43.791Z,2.00
2022-12-29T18:51:07.693Z,2.00
2022-12-29T18:52:31.131Z,1.67
2022-12-29T18:53:56.168Z,2.25
2022-12-29T18:55:21.539Z,2.40
2022-12-29T18:56:44.967Z,2.88
2022-12-29T18:58:08.382Z,2.75
2022-12-29T18:59:31.818Z,2.30
2022-12-29T19:00:55.341Z,1.90
2022-12-29T19:02:19.334Z,1.70
2022-12-29T19:03:42.875Z,1.58
2022-12-29T19:05:08.832Z,2.15
2022-12-29T19:06:32.348Z,1.60
2022-12-29T19:07:56.068Z,1.33
2022-12-29T19:09:21.191Z,1.70
2022-12-29T19:10:45.589Z,1.92
2022-12-29T19:12:10.607Z,1.92
2022-12-29T19:13:33.752Z,1.10
2022-12-29T19:14:57.183Z,1.48
2022-12-29T19:16:22.523Z,1.70
2022-12-29T19:17:45.948Z,1.17
2022-12-29T19:19:15.361Z,1.30
2022-12-29T19:20:40.504Z,1.42
2022-12-29T19:22:03.889Z,1.85